Details From LOWW - Wien Schwechat
To LIBD - Bari Palese Macchie
Flight Number -
Tags generated
Created
Modified
Stats Distance 424 nm / 786 km
Max Altitude 35,000 ft / 10,668 m
Waypoints 12
Social Downloads 0
Likes 0
Share VATSIM

Download

Looking for another format? Having issues loading an existing format? Contact us
Advertisement - Login to hide

Notes

Basic altitude profile: - Ascent Rate: 2500ft/min - Ascent Speed: 250kts - Cruise Altitude: 35000ft - Cruise Speed: 420kts - Descent Rate: 1500ft/min - Descent Speed: 250kts Options: - Use NATs: yes - Use PACOTS: yes - Use low airways: yes - Use high airways: yes

Route

LOWW OBUTI ZAG UM725 SPL UL862 RILIM LIBD

ID Type Via Altitude Latitude Longitude Leg Dist Tot Dist Heading (true) Name
O LOWW APT - 0 ft / 0 m 48.11007˚ 16.56964˚ - 0 nm - Wien Schwechat
OBUTI FIX - 34,000 ft / 10,363 m 46.37830˚ 16.27405˚ 104 nm 104 nm 187° / 187° -
ZAG VOR - 35,000 ft / 10,668 m 45.89556˚ 16.30670˚ 29 nm 133 nm 177° / 177° ZAGREB VOR-DME
SIRMA FIX UM725 (AWY-HI) 34,000 ft / 10,363 m 45.24250˚ 16.30611˚ 39 nm 172 nm 180° / 180° -
RUDIK FIX UM725 (AWY-HI) 34,000 ft / 10,363 m 44.99667˚ 16.30500˚ 14 nm 187 nm 180° / 180° -
MONID FIX UM725 (AWY-HI) 35,000 ft / 10,668 m 44.96750˚ 16.30583˚ 1 nm 189 nm 179° / 179° -
SUDIM FIX UM725 (AWY-HI) 34,000 ft / 10,363 m 44.66722˚ 16.30556˚ 18 nm 207 nm 180° / 180° -
TABAV FIX UM725 (AWY-HI) 34,000 ft / 10,363 m 44.41389˚ 16.30556˚ 15 nm 222 nm 180° / 180° -
SIRMI FIX UM725 (AWY-HI) 34,000 ft / 10,363 m 44.15000˚ 16.30361˚ 15 nm 238 nm 180° / 180° -
SPL VOR UM725 (AWY-HI) 31,300 ft / 9,540 m 43.49658˚ 16.30472˚ 39 nm 277 nm 180° / 180° SPLIT VOR-DME
RILIM FIX UL862 (AWY-HI) 19,500 ft / 5,944 m 42.65861˚ 16.81556˚ 55 nm 332 nm 156° / 156° -
O LIBD APT - 0 ft / 0 m 41.13787˚ 16.75832˚ 91 nm 424 nm 182° / 182° Bari Palese Macchie

Altitude Profile

Advertisement - Login to hide

Weather


0- 5 10 15 20 25 30 35+ Temperature / ° C

Clouds and Precipitation
Forecast for 2017-12-15 06:00 UTC. Updated an hour ago

Ground ~20,000 ft ~40,000 ft Winds

LOWW

Details ICAO LOWW (VIE)
Name Wien Schwechat
Region Austria
Timezone Europe/Vienna (UTC+1.0)
Stats Elevation 600 ft / 183 m (AMSL)
Location 48.110068° 16.569637°
Runways 2
Magnetic Variation 4.257° E

METAR

LOWW 150420Z VRB02KT 9000 FEW180 02/01 Q0996 NOSIG

Decode

TAF

TAF LOWW 142315Z 1500/1606 15007KT 9999 BKN030 TX06/1512Z TN01/1604Z PROB40 1501/1506 4000 BR BKN002 FM150700 29013KT CAVOK TEMPO 1508/1514 30015G25KT BECMG 1515/1517 VRB02KT FM160300 32006KT 9999 BKN030

Decode

Departure Runways

ID Width Length Bearing (true) Bearing (mag) Surface Threshold Offset Overrun Length
11 148 ft / 45 m 11,457 ft / 3,492 m 115.99° 111.73° Asphalt 0 ft / 0 m 0 ft / 0 m
16 148 ft / 45 m 11,811 ft / 3,600 m 164.23° 159.97° Asphalt 0 ft / 0 m 33 ft / 10 m
29 148 ft / 45 m 11,457 ft / 3,492 m 296.03° 291.77° Asphalt 0 ft / 0 m 0 ft / 0 m
34 148 ft / 45 m 11,811 ft / 3,600 m 344.24° 339.98° Asphalt 0 ft / 0 m 0 ft / 0 m

LIBD

Details ICAO LIBD (BRI)
Name Bari Palese Macchie
Region Italy
Timezone Europe/Rome (UTC+1.0)
Stats Elevation 177 ft / 54 m (AMSL)
Location 41.137865° 16.758318°
Runways 1
Magnetic Variation 3.737° E

METAR

LIBD 150420Z 19007KT 160V230 CAVOK 14/09 Q1009

Decode

TAF

TAF LIBD 142300Z 1500/1524 23014KT 9999 SCT030 TEMPO 1504/1512 RA= TAF LIBP 142300Z 1500/1524 22018KT 9999 SCT020 TEMPO 1500/1506 22020G30KT TEMPO 1514/1518 RA

Decode

Destination Runways

ID Width Length Bearing (true) Bearing (mag) Surface Threshold Offset Overrun Length
07 148 ft / 45 m 9,262 ft / 2,823 m 69.39° 65.65° Asphalt 1,257 ft / 383 m 0 ft / 0 m
25 148 ft / 45 m 9,262 ft / 2,823 m 249.42° 245.68° Asphalt 0 ft / 0 m 194 ft / 59 m

Approach Navaids

Runway Type Ident Frequency Range Bearing (true) Bearing (mag) Slope Elevation
07 Localiser BAP 111.35 MHz 18 nm / 33 km 69.25° 65.51° - 177 ft / 54 m (AMSL)
07 Glidescope BAP 111.35 MHz 10 nm / 19 km 69.25° 65.51° 3.32° 177 ft / 54 m (AMSL)
07 DME BAP 111.35 MHz 18 nm / 33 km - - - 183 ft / 56 m (AMSL)

Popular Alternatives